createdAt,value
2018-08-07T00:02:12.780Z,8.47
2018-08-07T00:04:41.269Z,9.33
2018-08-07T00:07:09.762Z,8.70
2018-08-07T00:09:38.260Z,6.80
2018-08-07T00:12:06.776Z,7.90
2018-08-07T00:14:35.255Z,7.70
2018-08-07T00:17:03.740Z,7.60
2018-08-07T00:19:32.232Z,7.63
2018-08-07T00:22:00.714Z,8.57
2018-08-07T00:24:29.202Z,6.80
2018-08-07T00:26:57.736Z,6.87
2018-08-07T00:29:26.215Z,6.57
2018-08-07T00:31:54.757Z,5.97
2018-08-07T00:34:23.235Z,7.40
2018-08-07T00:36:51.999Z,6.40
2018-08-07T00:39:20.486Z,10.20
2018-08-07T00:41:48.996Z,6.83
2018-08-07T00:44:17.497Z,6.13
2018-08-07T00:46:45.982Z,6.10
2018-08-07T00:49:14.464Z,6.83
2018-08-07T00:51:42.968Z,6.17
2018-08-07T00:54:11.449Z,8.00
2018-08-07T00:56:39.963Z,10.13
2018-08-07T00:59:08.453Z,5.70
2018-08-07T01:01:36.968Z,5.87
2018-08-07T01:04:05.499Z,5.43
2018-08-07T01:06:34.004Z,7.13
2018-08-07T01:09:02.536Z,5.87
2018-08-07T01:11:31.047Z,10.17
2018-08-07T01:13:59.548Z,6.77
2018-08-07T01:16:28.029Z,8.37
2018-08-07T01:18:56.525Z,6.70
2018-08-07T01:21:25.027Z,7.47
2018-08-07T01:23:53.549Z,10.67
2018-08-07T01:26:22.036Z,7.13
2018-08-07T01:28:50.520Z,7.53
2018-08-07T01:31:19.052Z,6.13
2018-08-07T01:33:47.530Z,6.23
2018-08-07T01:36:16.033Z,6.40
2018-08-07T01:38:44.527Z,8.77
2018-08-07T01:41:13.053Z,6.80
2018-08-07T01:43:41.529Z,6.80
2018-08-07T01:46:10.010Z,6.77
2018-08-07T01:48:38.521Z,6.57
2018-08-07T01:51:07.252Z,6.43
2018-08-07T01:53:35.784Z,6.90
2018-08-07T01:56:04.284Z,7.00
2018-08-07T01:58:32.801Z,7.13
2018-08-07T02:01:01.268Z,7.20
2018-08-07T02:03:29.748Z,7.97
2018-08-07T02:05:58.247Z,6.60
2018-08-07T02:08:26.716Z,5.77
2018-08-07T02:10:55.189Z,6.67
2018-08-07T02:13:23.673Z,4.97
2018-08-07T02:15:52.176Z,6.47
2018-08-07T02:18:20.685Z,7.73
2018-08-07T02:20:49.185Z,5.90
2018-08-07T02:23:17.671Z,10.23
2018-08-07T02:25:46.180Z,6.13
2018-08-07T02:28:14.665Z,8.00
2018-08-07T02:30:43.175Z,10.57
2018-08-07T02:33:11.652Z,8.03
2018-08-07T02:35:40.138Z,12.43
2018-08-07T02:38:08.604Z,8.63
2018-08-07T02:40:37.105Z,11.13
2018-08-07T02:43:05.581Z,7.33
2018-08-07T02:45:34.061Z,5.40
2018-08-07T02:48:02.574Z,7.40
2018-08-07T02:50:31.051Z,15.10
2018-08-07T02:52:59.542Z,7.10
2018-08-07T02:55:28.298Z,12.27
2018-08-07T02:57:56.789Z,8.23
2018-08-07T03:00:25.272Z,9.27
2018-08-07T03:02:53.741Z,6.23
2018-08-07T03:05:22.490Z,5.80
2018-08-07T03:07:51.096Z,8.70
2018-08-07T03:10:19.623Z,15.60
2018-08-07T03:12:48.130Z,7.10
2018-08-07T03:15:18.168Z,5.80
2018-08-07T03:17:48.294Z,5.10
2018-08-07T03:20:17.370Z,6.27
2018-08-07T03:22:45.923Z,5.97
2018-08-07T03:25:15.160Z,5.47
2018-08-07T03:27:44.885Z,9.07
2018-08-07T03:30:15.294Z,5.87
2018-08-07T03:32:44.485Z,5.60
2018-08-07T03:35:13.191Z,6.37
2018-08-07T03:37:42.060Z,5.90
2018-08-07T03:40:14.294Z,5.93
2018-08-07T03:42:43.116Z,7.53
2018-08-07T03:45:13.769Z,8.93
2018-08-07T03:47:44.381Z,11.33
2018-08-07T03:50:18.229Z,16.70
2018-08-07T03:52:47.241Z,10.20
2018-08-07T03:55:17.698Z,11.63
2018-08-07T03:57:47.221Z,21.57
2018-08-07T04:00:19.680Z,12.00
2018-08-07T04:02:48.521Z,14.30
2018-08-07T04:05:17.560Z,8.20
2018-08-07T04:07:46.680Z,10.60
2018-08-07T04:10:16.684Z,18.67
2018-08-07T04:12:45.184Z,11.40
2018-08-07T04:15:15.228Z,11.70
2018-08-07T04:17:44.100Z,12.30
2018-08-07T04:20:14.183Z,7.77
2018-08-07T04:22:43.144Z,9.47
2018-08-07T04:25:11.668Z,12.00
2018-08-07T04:27:40.148Z,8.73
2018-08-07T04:30:11.945Z,9.70
2018-08-07T04:32:40.701Z,7.97
2018-08-07T04:35:09.265Z,6.50
2018-08-07T04:37:37.747Z,9.47
2018-08-07T04:40:06.952Z,9.37
2018-08-07T04:42:35.857Z,10.63
2018-08-07T04:45:05.414Z,8.47
2018-08-07T04:47:33.892Z,6.47
2018-08-07T04:50:02.665Z,9.43
2018-08-07T04:52:31.153Z,9.90
2018-08-07T04:54:59.660Z,7.60
2018-08-07T04:57:28.144Z,9.53
2018-08-07T04:59:56.623Z,6.37
2018-08-07T05:02:25.100Z,6.20
2018-08-07T05:04:53.591Z,6.87
2018-08-07T05:07:22.189Z,9.10
2018-08-07T05:09:50.717Z,6.90
2018-08-07T05:12:19.244Z,8.30
2018-08-07T05:14:47.717Z,6.13
2018-08-07T05:17:16.208Z,8.27
2018-08-07T05:19:44.709Z,7.97
2018-08-07T05:22:13.185Z,6.37
2018-08-07T05:24:41.703Z,7.60
2018-08-07T05:27:10.193Z,7.27
2018-08-07T05:29:38.677Z,6.70
2018-08-07T05:32:07.399Z,9.27
2018-08-07T05:34:35.879Z,6.57
2018-08-07T05:37:04.371Z,7.03
2018-08-07T05:39:32.859Z,6.37
2018-08-07T05:42:01.376Z,9.20
2018-08-07T05:44:29.888Z,6.70
2018-08-07T05:46:58.380Z,8.00
2018-08-07T05:49:26.932Z,6.70
2018-08-07T05:51:55.424Z,9.37
2018-08-07T05:54:23.908Z,6.70
2018-08-07T05:56:52.380Z,6.87
2018-08-07T05:59:20.900Z,10.90
2018-08-07T06:01:49.431Z,6.93
2018-08-07T06:04:17.928Z,8.20
2018-08-07T06:06:46.720Z,6.77
2018-08-07T06:09:15.209Z,10.83
2018-08-07T06:11:43.707Z,6.40
2018-08-07T06:14:12.420Z,8.33
2018-08-07T06:16:40.920Z,7.37
2018-08-07T06:19:09.482Z,8.10
2018-08-07T06:21:37.944Z,6.63
2018-08-07T06:24:06.442Z,7.07
2018-08-07T06:26:34.937Z,8.17
2018-08-07T06:29:03.416Z,6.53
2018-08-07T06:31:31.951Z,9.67
2018-08-07T06:34:00.581Z,7.73
2018-08-07T06:36:29.117Z,9.43
2018-08-07T06:38:57.649Z,6.93
2018-08-07T06:41:26.136Z,7.80
2018-08-07T06:43:54.640Z,6.63
2018-08-07T06:46:23.212Z,8.33
2018-08-07T06:48:51.720Z,7.70
2018-08-07T06:51:20.220Z,6.83
2018-08-07T06:53:48.757Z,12.20
2018-08-07T06:56:17.260Z,19.33
2018-08-07T06:58:45.803Z,16.47
2018-08-07T07:01:14.295Z,17.37
2018-08-07T07:03:42.821Z,15.20
2018-08-07T07:06:11.313Z,15.10
2018-08-07T07:08:39.848Z,15.17
2018-08-07T07:11:08.376Z,17.67
2018-08-07T07:13:36.929Z,13.47
2018-08-07T07:16:05.692Z,12.60
2018-08-07T07:18:34.204Z,10.47
2018-08-07T07:21:02.695Z,14.67
2018-08-07T07:23:31.191Z,16.83
2018-08-07T07:25:59.688Z,11.33
2018-08-07T07:28:28.187Z,12.80
2018-08-07T07:30:56.718Z,12.77
2018-08-07T07:33:25.200Z,10.30
2018-08-07T07:35:53.693Z,11.07
2018-08-07T07:38:22.216Z,16.57
2018-08-07T07:40:50.746Z,11.53
2018-08-07T07:43:19.247Z,14.07
2018-08-07T07:45:47.725Z,12.13
2018-08-07T07:48:16.199Z,12.43
2018-08-07T07:50:44.714Z,16.90
2018-08-07T07:53:13.206Z,12.20
2018-08-07T07:55:41.761Z,11.37
2018-08-07T07:58:10.254Z,9.70
2018-08-07T08:00:38.745Z,14.47
2018-08-07T08:03:07.340Z,11.50
2018-08-07T08:05:35.829Z,11.47
2018-08-07T08:08:04.392Z,11.33
2018-08-07T08:10:32.898Z,10.63
2018-08-07T08:13:01.411Z,12.93
2018-08-07T08:15:30.015Z,13.57
2018-08-07T08:17:58.529Z,11.70
2018-08-07T08:20:27.256Z,12.37
2018-08-07T08:22:56.117Z,11.97
2018-08-07T08:25:24.626Z,10.87
2018-08-07T08:27:53.162Z,12.13
2018-08-07T08:30:21.658Z,10.80
2018-08-07T08:32:50.162Z,10.53
2018-08-07T08:35:19.609Z,11.03
2018-08-07T08:37:48.588Z,10.53
2018-08-07T08:40:18.584Z,8.70
2018-08-07T08:42:47.107Z,10.50
2018-08-07T08:45:17.977Z,9.83
2018-08-07T08:47:47.543Z,9.23
2018-08-07T08:50:17.575Z,13.13
2018-08-07T08:52:47.055Z,11.23
2018-08-07T08:55:15.636Z,11.63
2018-08-07T08:57:45.010Z,11.23
2018-08-07T09:00:18.497Z,13.43
2018-08-07T09:02:47.933Z,9.73
2018-08-07T09:05:16.623Z,12.90
2018-08-07T09:07:46.055Z,10.53
2018-08-07T09:10:23.042Z,10.47
2018-08-07T09:12:52.206Z,9.50
2018-08-07T09:15:20.941Z,9.97
2018-08-07T09:17:49.703Z,9.70
2018-08-07T09:20:21.509Z,9.80
2018-08-07T09:22:50.476Z,12.87
2018-08-07T09:25:20.057Z,11.53
2018-08-07T09:27:48.823Z,11.10
2018-08-07T09:30:21.121Z,9.83
2018-08-07T09:32:50.952Z,11.00
2018-08-07T09:35:20.731Z,9.00
2018-08-07T09:37:49.553Z,9.00
2018-08-07T09:40:19.353Z,10.20
2018-08-07T09:42:49.303Z,9.83
2018-08-07T09:45:22.910Z,9.50
2018-08-07T09:47:51.777Z,12.30
2018-08-07T09:50:21.306Z,9.50
2018-08-07T09:52:50.470Z,14.00
2018-08-07T09:55:19.212Z,11.03
2018-08-07T09:57:48.817Z,12.07
2018-08-07T10:00:25.715Z,11.67
2018-08-07T10:02:57.196Z,8.10
2018-08-07T10:05:27.738Z,10.37
2018-08-07T10:07:56.361Z,9.43
2018-08-07T10:10:25.283Z,9.87
2018-08-07T10:12:54.071Z,9.27
2018-08-07T10:15:22.838Z,9.10
2018-08-07T10:17:51.686Z,9.43
2018-08-07T10:20:20.554Z,9.03
2018-08-07T10:22:49.035Z,11.23
2018-08-07T10:25:19.074Z,13.90
2018-08-07T10:27:48.673Z,13.13
2018-08-07T10:30:18.787Z,11.87
2018-08-07T10:32:48.149Z,16.20
2018-08-07T10:35:17.175Z,12.83
2018-08-07T10:37:46.324Z,13.53
2018-08-07T10:40:18.121Z,14.30
2018-08-07T10:42:46.631Z,10.47
2018-08-07T10:45:16.672Z,10.27
2018-08-07T10:47:45.209Z,13.00
2018-08-07T10:50:20.263Z,15.97
2018-08-07T10:52:49.094Z,10.93
2018-08-07T10:55:18.025Z,11.77
2018-08-07T10:57:47.860Z,16.97
2018-08-07T11:00:20.092Z,15.30
2018-08-07T11:02:49.767Z,11.90
2018-08-07T11:05:18.805Z,43.17
2018-08-07T11:07:47.309Z,25.17
2018-08-07T11:10:16.292Z,26.57
2018-08-07T11:12:44.817Z,33.37
2018-08-07T11:15:18.778Z,23.40
2018-08-07T11:17:48.437Z,24.33
2018-08-07T11:20:17.169Z,23.93
2018-08-07T11:22:47.423Z,27.70
2018-08-07T11:25:17.033Z,24.53
2018-08-07T11:27:45.582Z,22.17
2018-08-07T11:30:20.326Z,23.70
2018-08-07T11:32:49.221Z,22.50
2018-08-07T11:35:17.987Z,19.57
2018-08-07T11:37:50.060Z,18.63
2018-08-07T11:40:20.094Z,18.67
2018-08-07T11:42:49.517Z,16.47
2018-08-07T11:45:19.544Z,19.60
2018-08-07T11:47:48.360Z,19.47
2018-08-07T11:50:19.272Z,15.90
2018-08-07T11:52:48.220Z,21.20
2018-08-07T11:55:17.750Z,19.90
2018-08-07T11:57:47.201Z,17.33
2018-08-07T12:00:20.890Z,16.30
2018-08-07T12:02:49.527Z,15.10
2018-08-07T12:05:18.333Z,16.50
2018-08-07T12:07:46.880Z,16.90
2018-08-07T12:10:17.097Z,17.17
2018-08-07T12:12:46.019Z,15.40
2018-08-07T12:15:17.049Z,17.83
2018-08-07T12:17:45.713Z,15.43
2018-08-07T12:20:14.216Z,16.07
2018-08-07T12:22:42.775Z,14.03
2018-08-07T12:25:12.948Z,16.57
2018-08-07T12:27:41.487Z,16.70
2018-08-07T12:30:22.031Z,13.13
2018-08-07T12:32:50.545Z,14.90
2018-08-07T12:35:19.166Z,13.53
2018-08-07T12:37:47.733Z,13.53
2018-08-07T12:40:20.406Z,20.23
2018-08-07T12:42:49.583Z,16.23
2018-08-07T12:45:18.110Z,20.27
2018-08-07T12:47:47.047Z,12.97
2018-08-07T12:50:16.360Z,13.73
2018-08-07T12:52:44.852Z,14.43
2018-08-07T12:55:17.127Z,14.90
2018-08-07T12:57:46.209Z,16.77
2018-08-07T13:00:17.430Z,15.63
2018-08-07T13:02:45.948Z,12.90
2018-08-07T13:05:14.448Z,15.30
2018-08-07T13:07:42.942Z,14.20
2018-08-07T13:10:13.866Z,15.07
2018-08-07T13:12:43.247Z,13.70
2018-08-07T13:15:13.343Z,14.20
2018-08-07T13:17:42.009Z,12.63
2018-08-07T13:20:11.338Z,13.50
2018-08-07T13:22:40.631Z,11.87
2018-08-07T13:25:11.062Z,12.50
2018-08-07T13:27:39.975Z,12.60
2018-08-07T13:30:11.180Z,14.87
2018-08-07T13:32:39.785Z,11.60
2018-08-07T13:35:08.281Z,14.40
2018-08-07T13:37:36.759Z,15.07
2018-08-07T13:40:07.391Z,15.33
2018-08-07T13:42:35.919Z,13.63
2018-08-07T13:45:06.302Z,11.67
2018-08-07T13:47:34.845Z,12.43
2018-08-07T13:50:03.671Z,12.37
2018-08-07T13:52:32.176Z,12.70
2018-08-07T13:55:00.662Z,13.00
2018-08-07T13:57:29.154Z,14.13
2018-08-07T13:59:57.671Z,13.50
2018-08-07T14:02:26.157Z,12.30
2018-08-07T14:04:56.044Z,12.37
2018-08-07T14:07:24.542Z,10.77
2018-08-07T14:09:53.236Z,13.77
2018-08-07T14:12:22.292Z,12.40
2018-08-07T14:14:51.751Z,13.00
2018-08-07T14:17:20.338Z,12.27
2018-08-07T14:19:49.916Z,11.30
2018-08-07T14:22:19.472Z,13.00
2018-08-07T14:24:49.259Z,12.07
2018-08-07T14:27:17.801Z,11.77
2018-08-07T14:29:46.286Z,13.17
2018-08-07T14:32:14.803Z,12.57
2018-08-07T14:34:43.305Z,12.53
2018-08-07T14:37:11.860Z,12.47
2018-08-07T14:39:40.495Z,11.33
2018-08-07T14:42:09.151Z,11.87
2018-08-07T14:44:37.893Z,11.27
2018-08-07T14:47:06.598Z,12.50
2018-08-07T14:49:35.184Z,14.47
2018-08-07T14:52:03.695Z,11.73
2018-08-07T14:54:32.450Z,14.10
2018-08-07T14:57:01.346Z,16.80
2018-08-07T14:59:30.374Z,12.23
2018-08-07T15:01:59.047Z,12.57
2018-08-07T15:04:27.826Z,10.53
2018-08-07T15:06:56.462Z,13.33
2018-08-07T15:09:25.272Z,10.47
2018-08-07T15:11:54.125Z,11.67
2018-08-07T15:14:22.990Z,16.40
2018-08-07T15:16:51.487Z,12.23
2018-08-07T15:19:20.002Z,11.77
2018-08-07T15:21:48.564Z,13.27
2018-08-07T15:24:17.072Z,12.37
2018-08-07T15:26:45.638Z,10.80
2018-08-07T15:29:14.177Z,12.70
2018-08-07T15:31:42.780Z,13.27
2018-08-07T15:34:11.396Z,10.27
2018-08-07T15:36:39.966Z,13.83
2018-08-07T15:39:11.914Z,10.50
2018-08-07T15:41:40.866Z,12.43
2018-08-07T15:44:09.487Z,10.67
2018-08-07T15:46:38.047Z,12.53
2018-08-07T15:49:06.784Z,13.13
2018-08-07T15:51:35.352Z,11.37
2018-08-07T15:54:03.894Z,11.30
2018-08-07T15:56:32.628Z,10.77
2018-08-07T15:59:01.281Z,10.40
2018-08-07T16:01:29.887Z,10.70
2018-08-07T16:03:58.394Z,10.07
2018-08-07T16:06:26.972Z,10.77
2018-08-07T16:08:55.613Z,9.77
2018-08-07T16:11:24.135Z,13.07
2018-08-07T16:13:52.667Z,12.20
2018-08-07T16:16:21.253Z,9.47
2018-08-07T16:18:49.843Z,10.83
2018-08-07T16:21:18.391Z,10.20
2018-08-07T16:23:46.956Z,10.50
2018-08-07T16:26:15.507Z,11.27
2018-08-07T16:28:44.059Z,14.03
2018-08-07T16:31:12.657Z,10.40
2018-08-07T16:33:41.238Z,11.53
2018-08-07T16:36:09.770Z,10.17
2018-08-07T16:38:38.318Z,13.20
2018-08-07T16:41:07.243Z,12.20
2018-08-07T16:43:35.864Z,11.87
2018-08-07T16:46:04.427Z,10.50
2018-08-07T16:48:33.355Z,12.50
2018-08-07T16:51:01.943Z,10.60
2018-08-07T16:53:30.518Z,9.63
2018-08-07T16:55:59.024Z,13.93
2018-08-07T16:58:27.658Z,10.30
2018-08-07T17:00:56.263Z,9.57
2018-08-07T17:03:24.839Z,12.47
2018-08-07T17:05:53.439Z,10.10
2018-08-07T17:08:22.064Z,10.93
2018-08-07T17:10:50.850Z,10.80
2018-08-07T17:13:19.594Z,11.40
2018-08-07T17:15:48.238Z,10.80
2018-08-07T17:18:16.841Z,10.90
2018-08-07T17:20:45.572Z,10.03
2018-08-07T17:23:14.251Z,9.93
2018-08-07T17:25:42.825Z,11.40
2018-08-07T17:28:11.459Z,9.40
2018-08-07T17:30:40.096Z,9.70
2018-08-07T17:33:08.675Z,10.43
2018-08-07T17:35:37.453Z,10.53
2018-08-07T17:38:06.621Z,12.27
2018-08-07T17:40:35.303Z,11.30
2018-08-07T17:43:04.012Z,10.10
2018-08-07T17:45:32.675Z,11.53
2018-08-07T17:48:01.436Z,10.00
2018-08-07T17:50:30.106Z,10.40
2018-08-07T17:53:00.250Z,10.30
2018-08-07T17:55:29.507Z,10.97
2018-08-07T17:57:59.366Z,12.43
2018-08-07T18:00:28.141Z,9.40
2018-08-07T18:02:56.971Z,9.87
2018-08-07T18:05:25.732Z,15.80
2018-08-07T18:07:56.115Z,10.20
2018-08-07T18:10:25.031Z,10.87
2018-08-07T18:12:53.948Z,14.23
2018-08-07T18:15:23.644Z,11.53
2018-08-07T18:17:52.810Z,9.70
2018-08-07T18:20:23.110Z,12.57
2018-08-07T18:22:51.728Z,9.43
2018-08-07T18:25:20.457Z,10.23
2018-08-07T18:27:49.097Z,9.67
2018-08-07T18:30:19.835Z,11.13
2018-08-07T18:32:48.677Z,11.33
2018-08-07T18:35:20.376Z,10.43
2018-08-07T18:37:49.013Z,9.30
2018-08-07T18:40:17.551Z,9.83
2018-08-07T18:42:46.734Z,10.03
2018-08-07T18:45:15.777Z,11.70
2018-08-07T18:47:44.941Z,9.87
2018-08-07T18:50:16.344Z,13.33
2018-08-07T18:52:45.174Z,10.23
2018-08-07T18:55:14.631Z,10.00
2018-08-07T18:57:44.278Z,12.67
2018-08-07T19:00:16.319Z,9.80
2018-08-07T19:02:45.056Z,9.23
2018-08-07T19:05:16.649Z,10.33
2018-08-07T19:07:45.222Z,12.63
2018-08-07T19:10:14.308Z,16.33
2018-08-07T19:12:43.562Z,13.47
2018-08-07T19:15:13.585Z,10.47
2018-08-07T19:17:42.305Z,10.70
2018-08-07T19:20:12.855Z,11.63
2018-08-07T19:22:41.569Z,21.27
2018-08-07T19:25:11.174Z,20.17
2018-08-07T19:27:40.008Z,26.27
2018-08-07T19:30:10.660Z,25.67
2018-08-07T19:32:39.563Z,23.47
2018-08-07T19:35:09.249Z,35.60
2018-08-07T19:37:37.729Z,26.47
2018-08-07T19:40:08.131Z,27.20
2018-08-07T19:42:37.130Z,24.23
2018-08-07T19:45:08.143Z,29.90
2018-08-07T19:47:37.026Z,37.20
2018-08-07T19:50:06.839Z,27.43
2018-08-07T19:52:35.698Z,24.57
2018-08-07T19:55:04.650Z,22.53
2018-08-07T19:57:33.385Z,25.03
2018-08-07T20:00:01.996Z,30.37
2018-08-07T20:02:30.535Z,33.17
2018-08-07T20:04:59.050Z,20.93
2018-08-07T20:07:27.567Z,17.87
2018-08-07T20:09:56.091Z,16.13
2018-08-07T20:12:24.608Z,18.47
2018-08-07T20:14:53.250Z,28.97
2018-08-07T20:17:21.848Z,29.80
2018-08-07T20:19:50.500Z,19.43
2018-08-07T20:22:19.306Z,12.10
2018-08-07T20:24:48.175Z,21.33
2018-08-07T20:27:16.815Z,16.90
2018-08-07T20:29:45.665Z,17.57
2018-08-07T20:32:14.175Z,17.93
2018-08-07T20:34:43.306Z,19.27
2018-08-07T20:37:11.853Z,20.37
2018-08-07T20:39:40.667Z,18.10
2018-08-07T20:42:09.223Z,17.97
2018-08-07T20:44:37.764Z,19.20
2018-08-07T20:47:06.379Z,15.73
2018-08-07T20:49:34.962Z,18.97
2018-08-07T20:52:03.631Z,15.93
2018-08-07T20:54:32.146Z,22.63
2018-08-07T20:57:00.758Z,16.50
2018-08-07T20:59:29.325Z,20.13
2018-08-07T21:01:57.832Z,17.03
2018-08-07T21:04:26.381Z,19.97
2018-08-07T21:06:54.911Z,19.30
2018-08-07T21:09:23.596Z,20.23
2018-08-07T21:11:52.231Z,21.53
2018-08-07T21:14:20.848Z,14.87
2018-08-07T21:16:49.501Z,16.17
2018-08-07T21:19:18.100Z,18.00
2018-08-07T21:21:46.633Z,17.27
2018-08-07T21:24:15.159Z,16.47
2018-08-07T21:26:44.310Z,24.93
2018-08-07T21:29:12.813Z,16.47
2018-08-07T21:31:41.339Z,15.73
2018-08-07T21:34:09.841Z,14.70
2018-08-07T21:36:38.357Z,12.93
2018-08-07T21:39:08.585Z,16.83
2018-08-07T21:41:37.122Z,13.93
2018-08-07T21:44:05.737Z,14.07
2018-08-07T21:46:34.445Z,16.23
2018-08-07T21:49:03.006Z,16.83
2018-08-07T21:51:31.508Z,13.40
2018-08-07T21:54:00.156Z,15.40
2018-08-07T21:56:28.545Z,14.47
2018-08-07T21:58:57.062Z,16.07
2018-08-07T22:01:25.558Z,12.93
2018-08-07T22:03:54.060Z,12.80
2018-08-07T22:06:22.597Z,15.37
2018-08-07T22:08:51.089Z,15.70
2018-08-07T22:11:19.617Z,12.93
2018-08-07T22:13:48.140Z,16.00
2018-08-07T22:16:16.659Z,15.17
2018-08-07T22:18:45.200Z,11.57
2018-08-07T22:21:13.737Z,12.93
2018-08-07T22:23:42.242Z,14.97
2018-08-07T22:26:10.762Z,13.30
2018-08-07T22:28:39.285Z,16.20
2018-08-07T22:31:07.830Z,15.73
2018-08-07T22:33:36.427Z,14.33
2018-08-07T22:36:05.257Z,16.67
2018-08-07T22:38:33.816Z,13.60
2018-08-07T22:41:02.303Z,14.10
2018-08-07T22:43:30.819Z,9.43
2018-08-07T22:45:59.343Z,16.13
2018-08-07T22:48:27.970Z,12.23
2018-08-07T22:50:56.470Z,12.13
2018-08-07T22:53:25.025Z,11.87
2018-08-07T22:55:53.511Z,10.97
2018-08-07T22:58:22.128Z,11.53
2018-08-07T23:00:50.635Z,15.23
2018-08-07T23:03:19.274Z,12.13
2018-08-07T23:05:47.784Z,11.33
2018-08-07T23:08:16.367Z,12.37
2018-08-07T23:10:44.866Z,11.57
2018-08-07T23:13:13.461Z,12.00
2018-08-07T23:15:41.988Z,11.70
2018-08-07T23:18:10.557Z,14.67
2018-08-07T23:20:39.056Z,13.53
2018-08-07T23:23:07.661Z,13.57
2018-08-07T23:25:36.155Z,11.47
2018-08-07T23:28:04.694Z,13.10
2018-08-07T23:30:33.181Z,11.10
2018-08-07T23:33:01.682Z,13.60
2018-08-07T23:35:30.210Z,11.13
2018-08-07T23:37:58.687Z,13.23
2018-08-07T23:40:27.183Z,12.67
2018-08-07T23:42:55.698Z,14.30
2018-08-07T23:45:24.262Z,12.20
2018-08-07T23:47:52.726Z,12.27
2018-08-07T23:50:21.218Z,11.73
2018-08-07T23:52:49.760Z,11.70
2018-08-07T23:55:18.280Z,11.53
2018-08-07T23:57:46.814Z,14.33
